sensor_id;sensor_type;location;lat;lon;timestamp;temperature;humidity
20728;DHT22;10525;50.154;8.198;2022-09-25T00:01:25;11.40;99.90
20728;DHT22;10525;50.154;8.198;2022-09-25T00:03:52;11.40;99.90
20728;DHT22;10525;50.154;8.198;2022-09-25T00:06:21;11.40;99.90
20728;DHT22;10525;50.154;8.198;2022-09-25T00:08:48;11.30;99.90
20728;DHT22;10525;50.154;8.198;2022-09-25T00:11:16;11.30;99.90
20728;DHT22;10525;50.154;8.198;2022-09-25T00:13:44;11.30;99.90
20728;DHT22;10525;50.154;8.198;2022-09-25T00:16:14;11.30;99.90
20728;DHT22;10525;50.154;8.198;2022-09-25T00:18:41;11.30;99.90
20728;DHT22;10525;50.154;8.198;2022-09-25T00:21:26;11.30;99.90
20728;DHT22;10525;50.154;8.198;2022-09-25T00:23:56;11.30;99.90
20728;DHT22;10525;50.154;8.198;2022-09-25T00:26:25;11.30;99.90
20728;DHT22;10525;50.154;8.198;2022-09-25T00:28:53;11.30;99.90
20728;DHT22;10525;50.154;8.198;2022-09-25T00:31:22;11.30;99.90
20728;DHT22;10525;50.154;8.198;2022-09-25T00:33:49;11.20;99.90
20728;DHT22;10525;50.154;8.198;2022-09-25T00:36:17;11.20;99.90
20728;DHT22;10525;50.154;8.198;2022-09-25T00:38:43;11.20;99.90
20728;DHT22;10525;50.154;8.198;2022-09-25T00:41:11;11.20;99.90
20728;DHT22;10525;50.154;8.198;2022-09-25T00:43:40;11.20;99.90
20728;DHT22;10525;50.154;8.198;2022-09-25T00:46:13;11.20;99.90
20728;DHT22;10525;50.154;8.198;2022-09-25T00:48:47;11.20;99.90
20728;DHT22;10525;50.154;8.198;2022-09-25T00:51:15;11.10;99.90
20728;DHT22;10525;50.154;8.198;2022-09-25T00:53:44;11.10;99.90
20728;DHT22;10525;50.154;8.198;2022-09-25T00:56:11;11.10;99.90
20728;DHT22;10525;50.154;8.198;2022-09-25T00:58:40;11.10;99.90
20728;DHT22;10525;50.154;8.198;2022-09-25T01:01:07;11.10;99.90
20728;DHT22;10525;50.154;8.198;2022-09-25T01:03:35;11.10;99.90
20728;DHT22;10525;50.154;8.198;2022-09-25T01:06:03;11.10;99.90
20728;DHT22;10525;50.154;8.198;2022-09-25T01:08:31;11.00;99.90
20728;DHT22;10525;50.154;8.198;2022-09-25T01:10:58;11.00;99.90
20728;DHT22;10525;50.154;8.198;2022-09-25T01:13:25;11.00;99.90
20728;DHT22;10525;50.154;8.198;2022-09-25T01:15:58;11.10;99.90
20728;DHT22;10525;50.154;8.198;2022-09-25T01:18:37;11.00;99.90
20728;DHT22;10525;50.154;8.198;2022-09-25T01:21:15;11.00;99.90
20728;DHT22;10525;50.154;8.198;2022-09-25T01:23:57;11.00;99.90
20728;DHT22;10525;50.154;8.198;2022-09-25T01:27:12;11.00;99.90
20728;DHT22;10525;50.154;8.198;2022-09-25T01:29:48;11.10;99.90
20728;DHT22;10525;50.154;8.198;2022-09-25T01:32:21;11.10;99.90
20728;DHT22;10525;50.154;8.198;2022-09-25T01:34:55;11.00;99.90
20728;DHT22;10525;50.154;8.198;2022-09-25T01:37:27;11.00;99.90
20728;DHT22;10525;50.154;8.198;2022-09-25T01:40:04;11.00;99.90
20728;DHT22;10525;50.154;8.198;2022-09-25T01:42:38;11.10;99.90
20728;DHT22;10525;50.154;8.198;2022-09-25T01:45:11;11.10;99.90
20728;DHT22;10525;50.154;8.198;2022-09-25T01:47:43;11.00;99.90
20728;DHT22;10525;50.154;8.198;2022-09-25T01:50:16;11.00;99.90
20728;DHT22;10525;50.154;8.198;2022-09-25T01:52:48;11.00;99.90
20728;DHT22;10525;50.154;8.198;2022-09-25T01:55:19;11.00;99.90
20728;DHT22;10525;50.154;8.198;2022-09-25T01:57:49;11.00;99.90
20728;DHT22;10525;50.154;8.198;2022-09-25T02:00:21;11.00;99.90
20728;DHT22;10525;50.154;8.198;2022-09-25T02:02:51;11.10;99.90
20728;DHT22;10525;50.154;8.198;2022-09-25T02:05:22;11.10;99.90
20728;DHT22;10525;50.154;8.198;2022-09-25T02:07:54;11.00;99.90
20728;DHT22;10525;50.154;8.198;2022-09-25T02:10:24;11.10;99.90
20728;DHT22;10525;50.154;8.198;2022-09-25T02:12:55;11.00;99.90
20728;DHT22;10525;50.154;8.198;2022-09-25T02:15:28;11.00;99.90
20728;DHT22;10525;50.154;8.198;2022-09-25T02:17:59;11.00;99.90
20728;DHT22;10525;50.154;8.198;2022-09-25T02:20:46;10.90;99.90
20728;DHT22;10525;50.154;8.198;2022-09-25T02:23:18;10.90;99.90
20728;DHT22;10525;50.154;8.198;2022-09-25T02:25:54;10.90;99.90
20728;DHT22;10525;50.154;8.198;2022-09-25T02:28:24;10.90;99.90
20728;DHT22;10525;50.154;8.198;2022-09-25T02:30:54;10.90;99.90
20728;DHT22;10525;50.154;8.198;2022-09-25T02:33:22;10.90;99.90
20728;DHT22;10525;50.154;8.198;2022-09-25T02:35:49;11.00;99.90
20728;DHT22;10525;50.154;8.198;2022-09-25T02:38:16;11.00;99.90
20728;DHT22;10525;50.154;8.198;2022-09-25T02:40:47;10.90;99.90
20728;DHT22;10525;50.154;8.198;2022-09-25T02:43:24;10.90;99.90
20728;DHT22;10525;50.154;8.198;2022-09-25T02:46:05;10.90;99.90
20728;DHT22;10525;50.154;8.198;2022-09-25T02:48:44;10.90;99.90
20728;DHT22;10525;50.154;8.198;2022-09-25T02:51:20;10.90;99.90
20728;DHT22;10525;50.154;8.198;2022-09-25T02:53:54;10.90;99.90
20728;DHT22;10525;50.154;8.198;2022-09-25T02:56:28;10.90;99.90
20728;DHT22;10525;50.154;8.198;2022-09-25T02:59:01;10.90;99.90
20728;DHT22;10525;50.154;8.198;2022-09-25T03:01:32;10.80;99.90
20728;DHT22;10525;50.154;8.198;2022-09-25T03:04:00;10.80;99.90
20728;DHT22;10525;50.154;8.198;2022-09-25T03:06:29;10.80;99.90
20728;DHT22;10525;50.154;8.198;2022-09-25T03:08:58;10.90;99.90
20728;DHT22;10525;50.154;8.198;2022-09-25T03:11:26;10.90;99.90
20728;DHT22;10525;50.154;8.198;2022-09-25T03:13:57;10.90;99.90
20728;DHT22;10525;50.154;8.198;2022-09-25T03:16:32;10.90;99.90
20728;DHT22;10525;50.154;8.198;2022-09-25T03:19:00;10.90;99.90
20728;DHT22;10525;50.154;8.198;2022-09-25T03:21:27;11.00;99.90
20728;DHT22;10525;50.154;8.198;2022-09-25T03:23:54;11.00;99.90
20728;DHT22;10525;50.154;8.198;2022-09-25T03:26:22;11.00;99.90
20728;DHT22;10525;50.154;8.198;2022-09-25T03:28:49;11.00;99.90
20728;DHT22;10525;50.154;8.198;2022-09-25T03:31:16;11.00;99.90
20728;DHT22;10525;50.154;8.198;2022-09-25T03:33:45;11.00;99.90
20728;DHT22;10525;50.154;8.198;2022-09-25T03:36:13;11.00;99.90
20728;DHT22;10525;50.154;8.198;2022-09-25T03:38:42;11.10;99.90
20728;DHT22;10525;50.154;8.198;2022-09-25T03:41:11;11.10;99.90
20728;DHT22;10525;50.154;8.198;2022-09-25T03:43:40;11.00;99.90
20728;DHT22;10525;50.154;8.198;2022-09-25T03:46:08;11.00;99.90
20728;DHT22;10525;50.154;8.198;2022-09-25T03:48:35;11.00;99.90
20728;DHT22;10525;50.154;8.198;2022-09-25T03:51:05;11.10;99.90
20728;DHT22;10525;50.154;8.198;2022-09-25T03:53:32;11.10;99.90
20728;DHT22;10525;50.154;8.198;2022-09-25T03:55:59;11.10;99.90
20728;DHT22;10525;50.154;8.198;2022-09-25T03:58:26;11.10;99.90
20728;DHT22;10525;50.154;8.198;2022-09-25T04:00:53;11.10;99.90
20728;DHT22;10525;50.154;8.198;2022-09-25T04:03:21;11.00;99.90
20728;DHT22;10525;50.154;8.198;2022-09-25T04:05:48;11.00;99.90
20728;DHT22;10525;50.154;8.198;2022-09-25T04:08:17;11.10;99.90
20728;DHT22;10525;50.154;8.198;2022-09-25T04:10:43;11.00;99.90
20728;DHT22;10525;50.154;8.198;2022-09-25T04:13:10;11.00;99.90
20728;DHT22;10525;50.154;8.198;2022-09-25T04:15:37;11.10;99.90
20728;DHT22;10525;50.154;8.198;2022-09-25T04:18:05;11.10;99.90
20728;DHT22;10525;50.154;8.198;2022-09-25T04:20:32;11.10;99.90
20728;DHT22;10525;50.154;8.198;2022-09-25T04:22:58;11.10;99.90
20728;DHT22;10525;50.154;8.198;2022-09-25T04:25:26;11.10;99.90
20728;DHT22;10525;50.154;8.198;2022-09-25T04:27:54;11.10;99.90
20728;DHT22;10525;50.154;8.198;2022-09-25T04:30:21;11.10;99.90
20728;DHT22;10525;50.154;8.198;2022-09-25T04:32:48;11.10;99.90
20728;DHT22;10525;50.154;8.198;2022-09-25T04:35:32;11.10;99.90
20728;DHT22;10525;50.154;8.198;2022-09-25T04:37:59;11.10;99.90
20728;DHT22;10525;50.154;8.198;2022-09-25T04:40:28;11.10;99.90
20728;DHT22;10525;50.154;8.198;2022-09-25T04:42:55;11.20;99.90
20728;DHT22;10525;50.154;8.198;2022-09-25T04:45:22;11.20;99.90
20728;DHT22;10525;50.154;8.198;2022-09-25T04:47:51;11.30;99.90
20728;DHT22;10525;50.154;8.198;2022-09-25T04:50:17;11.20;99.90
20728;DHT22;10525;50.154;8.198;2022-09-25T04:52:44;11.20;99.90
20728;DHT22;10525;50.154;8.198;2022-09-25T04:55:11;11.20;99.90
20728;DHT22;10525;50.154;8.198;2022-09-25T04:57:39;11.20;99.90
20728;DHT22;10525;50.154;8.198;2022-09-25T05:00:06;11.20;99.90
20728;DHT22;10525;50.154;8.198;2022-09-25T05:02:33;11.20;99.90
20728;DHT22;10525;50.154;8.198;2022-09-25T05:05:00;11.20;99.90
20728;DHT22;10525;50.154;8.198;2022-09-25T05:07:27;11.20;99.90
20728;DHT22;10525;50.154;8.198;2022-09-25T05:09:54;11.20;99.90
20728;DHT22;10525;50.154;8.198;2022-09-25T05:12:21;11.20;99.90
20728;DHT22;10525;50.154;8.198;2022-09-25T05:14:49;11.20;99.90
20728;DHT22;10525;50.154;8.198;2022-09-25T05:17:15;11.10;99.90
20728;DHT22;10525;50.154;8.198;2022-09-25T05:19:42;11.10;99.90
20728;DHT22;10525;50.154;8.198;2022-09-25T05:22:09;11.20;99.90
20728;DHT22;10525;50.154;8.198;2022-09-25T05:24:35;11.20;99.90
20728;DHT22;10525;50.154;8.198;2022-09-25T05:27:02;11.10;99.90
20728;DHT22;10525;50.154;8.198;2022-09-25T05:29:29;11.20;99.90
20728;DHT22;10525;50.154;8.198;2022-09-25T05:31:58;11.20;99.90
20728;DHT22;10525;50.154;8.198;2022-09-25T05:34:25;11.20;99.90
20728;DHT22;10525;50.154;8.198;2022-09-25T05:36:52;11.30;99.90
20728;DHT22;10525;50.154;8.198;2022-09-25T05:39:18;11.30;99.90
20728;DHT22;10525;50.154;8.198;2022-09-25T05:41:45;11.30;99.90
20728;DHT22;10525;50.154;8.198;2022-09-25T05:44:12;11.30;99.90
20728;DHT22;10525;50.154;8.198;2022-09-25T05:46:39;11.30;99.90
20728;DHT22;10525;50.154;8.198;2022-09-25T05:49:07;11.30;99.90
20728;DHT22;10525;50.154;8.198;2022-09-25T05:51:34;11.30;99.90
20728;DHT22;10525;50.154;8.198;2022-09-25T05:54:01;11.20;99.90
20728;DHT22;10525;50.154;8.198;2022-09-25T05:56:27;11.20;99.90
20728;DHT22;10525;50.154;8.198;2022-09-25T05:58:54;11.20;99.90
20728;DHT22;10525;50.154;8.198;2022-09-25T06:01:23;11.20;99.90
20728;DHT22;10525;50.154;8.198;2022-09-25T06:03:50;11.30;99.90
20728;DHT22;10525;50.154;8.198;2022-09-25T06:06:18;11.30;99.90
20728;DHT22;10525;50.154;8.198;2022-09-25T06:08:45;11.30;99.90
20728;DHT22;10525;50.154;8.198;2022-09-25T06:11:11;11.30;99.90
20728;DHT22;10525;50.154;8.198;2022-09-25T06:13:38;11.30;99.90
20728;DHT22;10525;50.154;8.198;2022-09-25T06:16:13;11.30;99.90
20728;DHT22;10525;50.154;8.198;2022-09-25T06:18:44;11.30;99.90
20728;DHT22;10525;50.154;8.198;2022-09-25T06:21:10;11.40;99.90
20728;DHT22;10525;50.154;8.198;2022-09-25T06:23:40;11.40;99.90
20728;DHT22;10525;50.154;8.198;2022-09-25T06:26:09;11.50;99.90
20728;DHT22;10525;50.154;8.198;2022-09-25T06:28:35;11.50;99.90
20728;DHT22;10525;50.154;8.198;2022-09-25T06:31:03;11.50;99.90
20728;DHT22;10525;50.154;8.198;2022-09-25T06:33:30;11.50;99.90
20728;DHT22;10525;50.154;8.198;2022-09-25T06:35:57;11.60;99.90
20728;DHT22;10525;50.154;8.198;2022-09-25T06:38:24;11.70;99.90
20728;DHT22;10525;50.154;8.198;2022-09-25T06:40:53;11.70;99.90
20728;DHT22;10525;50.154;8.198;2022-09-25T06:43:19;11.80;99.90
20728;DHT22;10525;50.154;8.198;2022-09-25T06:45:46;11.80;99.90
20728;DHT22;10525;50.154;8.198;2022-09-25T06:48:14;11.80;99.90
20728;DHT22;10525;50.154;8.198;2022-09-25T06:50:43;11.90;99.90
20728;DHT22;10525;50.154;8.198;2022-09-25T06:53:11;11.80;99.90
20728;DHT22;10525;50.154;8.198;2022-09-25T06:55:39;11.70;99.90
20728;DHT22;10525;50.154;8.198;2022-09-25T06:58:10;11.80;99.90
20728;DHT22;10525;50.154;8.198;2022-09-25T07:00:37;11.70;99.90
20728;DHT22;10525;50.154;8.198;2022-09-25T07:03:04;11.90;99.90
20728;DHT22;10525;50.154;8.198;2022-09-25T07:05:48;12.00;99.90
20728;DHT22;10525;50.154;8.198;2022-09-25T07:08:17;12.00;99.90
20728;DHT22;10525;50.154;8.198;2022-09-25T07:10:48;12.00;99.90
20728;DHT22;10525;50.154;8.198;2022-09-25T07:13:16;12.10;99.90
20728;DHT22;10525;50.154;8.198;2022-09-25T07:15:50;12.00;99.90
20728;DHT22;10525;50.154;8.198;2022-09-25T07:18:17;12.20;99.90
20728;DHT22;10525;50.154;8.198;2022-09-25T07:20:43;12.20;99.90
20728;DHT22;10525;50.154;8.198;2022-09-25T07:23:11;12.30;99.90
20728;DHT22;10525;50.154;8.198;2022-09-25T07:25:38;12.20;99.90
20728;DHT22;10525;50.154;8.198;2022-09-25T07:28:05;12.30;99.90
20728;DHT22;10525;50.154;8.198;2022-09-25T07:30:33;12.30;99.90
20728;DHT22;10525;50.154;8.198;2022-09-25T07:33:01;12.30;99.90
20728;DHT22;10525;50.154;8.198;2022-09-25T07:35:27;12.20;99.90
20728;DHT22;10525;50.154;8.198;2022-09-25T07:37:54;12.40;99.90
20728;DHT22;10525;50.154;8.198;2022-09-25T07:40:22;12.40;99.90
20728;DHT22;10525;50.154;8.198;2022-09-25T07:42:48;12.50;99.90
20728;DHT22;10525;50.154;8.198;2022-09-25T07:45:15;12.50;99.90
20728;DHT22;10525;50.154;8.198;2022-09-25T07:47:43;12.50;99.90
20728;DHT22;10525;50.154;8.198;2022-09-25T07:50:10;12.50;99.90
20728;DHT22;10525;50.154;8.198;2022-09-25T07:52:36;12.50;99.90
20728;DHT22;10525;50.154;8.198;2022-09-25T07:55:04;12.40;99.90
20728;DHT22;10525;50.154;8.198;2022-09-25T07:57:31;12.40;99.90
20728;DHT22;10525;50.154;8.198;2022-09-25T07:59:58;12.40;99.90
20728;DHT22;10525;50.154;8.198;2022-09-25T08:02:25;12.40;99.90
20728;DHT22;10525;50.154;8.198;2022-09-25T08:04:53;12.50;99.90
20728;DHT22;10525;50.154;8.198;2022-09-25T08:07:19;12.50;99.90
20728;DHT22;10525;50.154;8.198;2022-09-25T08:09:46;12.60;99.90
20728;DHT22;10525;50.154;8.198;2022-09-25T08:12:13;12.50;99.90
20728;DHT22;10525;50.154;8.198;2022-09-25T08:14:39;12.60;99.90
20728;DHT22;10525;50.154;8.198;2022-09-25T08:17:07;12.60;99.90
20728;DHT22;10525;50.154;8.198;2022-09-25T08:19:33;12.60;99.90
20728;DHT22;10525;50.154;8.198;2022-09-25T08:22:01;12.50;99.90
20728;DHT22;10525;50.154;8.198;2022-09-25T08:24:28;12.50;99.90
20728;DHT22;10525;50.154;8.198;2022-09-25T08:26:55;12.40;99.90
20728;DHT22;10525;50.154;8.198;2022-09-25T08:29:21;12.30;99.90
20728;DHT22;10525;50.154;8.198;2022-09-25T08:31:49;12.30;99.90
20728;DHT22;10525;50.154;8.198;2022-09-25T08:34:15;12.20;99.90
20728;DHT22;10525;50.154;8.198;2022-09-25T08:36:42;12.30;99.90
20728;DHT22;10525;50.154;8.198;2022-09-25T08:39:10;12.50;99.90
20728;DHT22;10525;50.154;8.198;2022-09-25T08:41:44;12.40;99.90
20728;DHT22;10525;50.154;8.198;2022-09-25T08:44:20;12.50;99.90
20728;DHT22;10525;50.154;8.198;2022-09-25T08:46:51;12.50;99.90
20728;DHT22;10525;50.154;8.198;2022-09-25T08:49:40;12.60;99.90
20728;DHT22;10525;50.154;8.198;2022-09-25T08:52:13;12.60;99.90
20728;DHT22;10525;50.154;8.198;2022-09-25T08:54:42;12.50;99.90
20728;DHT22;10525;50.154;8.198;2022-09-25T08:57:27;12.60;99.90
20728;DHT22;10525;50.154;8.198;2022-09-25T08:59:58;12.70;99.90
20728;DHT22;10525;50.154;8.198;2022-09-25T09:02:34;12.60;99.90
20728;DHT22;10525;50.154;8.198;2022-09-25T09:05:04;12.60;99.90
20728;DHT22;10525;50.154;8.198;2022-09-25T09:07:35;12.70;99.90
20728;DHT22;10525;50.154;8.198;2022-09-25T09:10:14;12.70;99.90
20728;DHT22;10525;50.154;8.198;2022-09-25T09:12:43;12.70;99.90
20728;DHT22;10525;50.154;8.198;2022-09-25T09:15:20;12.80;99.90
20728;DHT22;10525;50.154;8.198;2022-09-25T09:17:48;12.80;99.90
20728;DHT22;10525;50.154;8.198;2022-09-25T09:20:17;12.80;99.90
20728;DHT22;10525;50.154;8.198;2022-09-25T09:22:47;12.70;99.90
20728;DHT22;10525;50.154;8.198;2022-09-25T09:25:25;12.60;99.90
20728;DHT22;10525;50.154;8.198;2022-09-25T09:28:15;12.50;99.90
20728;DHT22;10525;50.154;8.198;2022-09-25T09:30:50;12.50;99.90
20728;DHT22;10525;50.154;8.198;2022-09-25T09:33:33;12.40;99.90
20728;DHT22;10525;50.154;8.198;2022-09-25T09:36:07;12.20;99.90
20728;DHT22;10525;50.154;8.198;2022-09-25T09:38:45;12.30;99.90
20728;DHT22;10525;50.154;8.198;2022-09-25T09:41:33;12.20;99.90
20728;DHT22;10525;50.154;8.198;2022-09-25T09:44:23;12.20;99.90
20728;DHT22;10525;50.154;8.198;2022-09-25T09:47:00;12.30;99.90
20728;DHT22;10525;50.154;8.198;2022-09-25T09:49:33;12.30;99.90
20728;DHT22;10525;50.154;8.198;2022-09-25T09:52:08;12.40;99.90
20728;DHT22;10525;50.154;8.198;2022-09-25T09:54:39;12.40;99.90
20728;DHT22;10525;50.154;8.198;2022-09-25T09:57:14;12.40;99.90
20728;DHT22;10525;50.154;8.198;2022-09-25T09:59:45;12.40;99.90
20728;DHT22;10525;50.154;8.198;2022-09-25T10:02:23;12.30;99.90
20728;DHT22;10525;50.154;8.198;2022-09-25T10:04:53;12.20;99.90
20728;DHT22;10525;50.154;8.198;2022-09-25T10:07:22;12.20;99.90
20728;DHT22;10525;50.154;8.198;2022-09-25T10:09:49;12.30;99.90
20728;DHT22;10525;50.154;8.198;2022-09-25T10:12:25;12.40;99.90
20728;DHT22;10525;50.154;8.198;2022-09-25T10:14:53;12.40;99.90
20728;DHT22;10525;50.154;8.198;2022-09-25T10:17:21;12.40;99.90
20728;DHT22;10525;50.154;8.198;2022-09-25T10:19:53;12.40;99.90
20728;DHT22;10525;50.154;8.198;2022-09-25T10:22:23;12.30;99.90
20728;DHT22;10525;50.154;8.198;2022-09-25T10:24:53;12.30;99.90
20728;DHT22;10525;50.154;8.198;2022-09-25T10:27:28;12.20;99.90
20728;DHT22;10525;50.154;8.198;2022-09-25T10:30:16;12.10;99.90
20728;DHT22;10525;50.154;8.198;2022-09-25T10:32:55;12.10;99.90
20728;DHT22;10525;50.154;8.198;2022-09-25T10:35:25;12.00;99.90
20728;DHT22;10525;50.154;8.198;2022-09-25T10:37:54;11.90;99.90
20728;DHT22;10525;50.154;8.198;2022-09-25T10:40:24;11.90;99.90
20728;DHT22;10525;50.154;8.198;2022-09-25T10:43:04;11.90;99.90
20728;DHT22;10525;50.154;8.198;2022-09-25T10:45:33;11.90;99.90
20728;DHT22;10525;50.154;8.198;2022-09-25T10:48:01;11.90;99.90
20728;DHT22;10525;50.154;8.198;2022-09-25T10:51:06;11.80;99.90
20728;DHT22;10525;50.154;8.198;2022-09-25T10:53:33;11.80;99.90
20728;DHT22;10525;50.154;8.198;2022-09-25T10:56:03;11.70;99.90
20728;DHT22;10525;50.154;8.198;2022-09-25T10:58:35;11.80;99.90
20728;DHT22;10525;50.154;8.198;2022-09-25T11:01:04;11.90;99.90
20728;DHT22;10525;50.154;8.198;2022-09-25T11:03:36;11.90;99.90
20728;DHT22;10525;50.154;8.198;2022-09-25T11:06:08;12.10;99.90
20728;DHT22;10525;50.154;8.198;2022-09-25T11:08:37;12.30;99.90
20728;DHT22;10525;50.154;8.198;2022-09-25T11:11:06;12.20;99.90
20728;DHT22;10525;50.154;8.198;2022-09-25T11:13:45;12.20;99.90
20728;DHT22;10525;50.154;8.198;2022-09-25T11:16:12;12.20;99.90
20728;DHT22;10525;50.154;8.198;2022-09-25T11:18:41;12.10;99.90
20728;DHT22;10525;50.154;8.198;2022-09-25T11:21:21;11.90;99.90
20728;DHT22;10525;50.154;8.198;2022-09-25T11:24:03;11.80;99.90
20728;DHT22;10525;50.154;8.198;2022-09-25T11:26:36;11.70;99.90
20728;DHT22;10525;50.154;8.198;2022-09-25T11:29:10;11.70;99.90
20728;DHT22;10525;50.154;8.198;2022-09-25T11:31:42;11.60;99.90
20728;DHT22;10525;50.154;8.198;2022-09-25T11:34:18;11.80;99.90
20728;DHT22;10525;50.154;8.198;2022-09-25T11:36:49;11.80;99.90
20728;DHT22;10525;50.154;8.198;2022-09-25T11:39:22;11.90;99.90
20728;DHT22;10525;50.154;8.198;2022-09-25T11:42:12;12.00;99.90
20728;DHT22;10525;50.154;8.198;2022-09-25T11:44:46;12.00;99.90
20728;DHT22;10525;50.154;8.198;2022-09-25T11:47:22;11.90;99.90
20728;DHT22;10525;50.154;8.198;2022-09-25T11:49:50;11.80;99.90
20728;DHT22;10525;50.154;8.198;2022-09-25T11:52:30;11.70;99.90
20728;DHT22;10525;50.154;8.198;2022-09-25T11:55:34;11.80;99.90
20728;DHT22;10525;50.154;8.198;2022-09-25T11:58:12;11.80;99.90
20728;DHT22;10525;50.154;8.198;2022-09-25T12:00:50;11.80;99.90
20728;DHT22;10525;50.154;8.198;2022-09-25T12:03:27;11.80;99.90
20728;DHT22;10525;50.154;8.198;2022-09-25T12:06:17;11.70;99.90
20728;DHT22;10525;50.154;8.198;2022-09-25T12:08:58;11.80;99.90
20728;DHT22;10525;50.154;8.198;2022-09-25T12:11:41;11.70;99.90
20728;DHT22;10525;50.154;8.198;2022-09-25T12:14:15;11.70;99.90
20728;DHT22;10525;50.154;8.198;2022-09-25T12:16:52;11.80;99.90
20728;DHT22;10525;50.154;8.198;2022-09-25T12:19:30;11.90;99.90
20728;DHT22;10525;50.154;8.198;2022-09-25T12:22:02;11.80;99.90
20728;DHT22;10525;50.154;8.198;2022-09-25T12:24:40;11.80;99.90
20728;DHT22;10525;50.154;8.198;2022-09-25T12:27:17;11.80;99.90
20728;DHT22;10525;50.154;8.198;2022-09-25T12:29:57;11.80;99.90
20728;DHT22;10525;50.154;8.198;2022-09-25T12:32:58;11.60;99.90
20728;DHT22;10525;50.154;8.198;2022-09-25T12:35:34;11.70;99.90
20728;DHT22;10525;50.154;8.198;2022-09-25T12:38:08;11.80;99.90
20728;DHT22;10525;50.154;8.198;2022-09-25T12:40:41;11.90;99.90
20728;DHT22;10525;50.154;8.198;2022-09-25T12:43:14;11.90;99.90
20728;DHT22;10525;50.154;8.198;2022-09-25T12:45:45;11.90;99.90
20728;DHT22;10525;50.154;8.198;2022-09-25T12:48:22;12.00;99.90
20728;DHT22;10525;50.154;8.198;2022-09-25T12:50:53;12.10;99.90
20728;DHT22;10525;50.154;8.198;2022-09-25T12:53:25;12.10;99.90
20728;DHT22;10525;50.154;8.198;2022-09-25T12:55:57;12.20;99.90
20728;DHT22;10525;50.154;8.198;2022-09-25T12:58:36;12.20;99.90
20728;DHT22;10525;50.154;8.198;2022-09-25T13:01:10;12.20;99.90
20728;DHT22;10525;50.154;8.198;2022-09-25T13:03:46;12.10;99.90
20728;DHT22;10525;50.154;8.198;2022-09-25T13:06:18;12.00;99.90
20728;DHT22;10525;50.154;8.198;2022-09-25T13:08:51;12.00;99.90
20728;DHT22;10525;50.154;8.198;2022-09-25T13:11:30;12.00;99.90
20728;DHT22;10525;50.154;8.198;2022-09-25T13:13:58;12.00;99.90
20728;DHT22;10525;50.154;8.198;2022-09-25T13:16:27;11.90;99.90
20728;DHT22;10525;50.154;8.198;2022-09-25T13:19:10;11.70;99.90
20728;DHT22;10525;50.154;8.198;2022-09-25T13:21:39;11.70;99.90
20728;DHT22;10525;50.154;8.198;2022-09-25T13:24:11;11.70;99.90
20728;DHT22;10525;50.154;8.198;2022-09-25T13:26:43;11.60;99.90
20728;DHT22;10525;50.154;8.198;2022-09-25T13:29:20;11.60;99.90
20728;DHT22;10525;50.154;8.198;2022-09-25T13:31:47;11.60;99.90
20728;DHT22;10525;50.154;8.198;2022-09-25T13:34:17;11.60;99.90
20728;DHT22;10525;50.154;8.198;2022-09-25T13:36:46;11.60;99.90
20728;DHT22;10525;50.154;8.198;2022-09-25T13:39:20;11.60;99.90
20728;DHT22;10525;50.154;8.198;2022-09-25T13:42:11;11.50;99.90
20728;DHT22;10525;50.154;8.198;2022-09-25T13:44:57;11.60;99.90
20728;DHT22;10525;50.154;8.198;2022-09-25T13:47:55;11.60;99.90
20728;DHT22;10525;50.154;8.198;2022-09-25T13:50:27;11.70;99.90
20728;DHT22;10525;50.154;8.198;2022-09-25T13:53:03;11.80;99.90
20728;DHT22;10525;50.154;8.198;2022-09-25T13:56:03;12.00;99.90
20728;DHT22;10525;50.154;8.198;2022-09-25T13:58:57;12.10;99.90
20728;DHT22;10525;50.154;8.198;2022-09-25T14:01:34;12.30;99.90
20728;DHT22;10525;50.154;8.198;2022-09-25T14:04:07;12.60;99.90
20728;DHT22;10525;50.154;8.198;2022-09-25T14:06:36;12.80;99.90
20728;DHT22;10525;50.154;8.198;2022-09-25T14:09:08;12.90;99.90
20728;DHT22;10525;50.154;8.198;2022-09-25T14:11:36;12.80;99.90
20728;DHT22;10525;50.154;8.198;2022-09-25T14:14:06;12.90;99.90
20728;DHT22;10525;50.154;8.198;2022-09-25T14:16:35;12.80;99.90
20728;DHT22;10525;50.154;8.198;2022-09-25T14:19:04;12.80;99.90
20728;DHT22;10525;50.154;8.198;2022-09-25T14:21:33;12.80;99.90
20728;DHT22;10525;50.154;8.198;2022-09-25T14:24:15;12.80;99.90
20728;DHT22;10525;50.154;8.198;2022-09-25T14:26:44;12.90;99.90
20728;DHT22;10525;50.154;8.198;2022-09-25T14:29:15;12.90;99.90
20728;DHT22;10525;50.154;8.198;2022-09-25T14:31:47;12.90;99.90
20728;DHT22;10525;50.154;8.198;2022-09-25T14:34:38;12.90;99.90
20728;DHT22;10525;50.154;8.198;2022-09-25T14:37:19;12.90;99.90
20728;DHT22;10525;50.154;8.198;2022-09-25T14:39:52;12.80;99.90
20728;DHT22;10525;50.154;8.198;2022-09-25T14:42:42;12.90;99.90
20728;DHT22;10525;50.154;8.198;2022-09-25T14:45:33;13.00;99.90
20728;DHT22;10525;50.154;8.198;2022-09-25T14:48:05;13.10;99.90
20728;DHT22;10525;50.154;8.198;2022-09-25T14:50:35;13.00;99.90
20728;DHT22;10525;50.154;8.198;2022-09-25T14:53:04;12.80;99.90
20728;DHT22;10525;50.154;8.198;2022-09-25T14:55:35;12.90;99.90
20728;DHT22;10525;50.154;8.198;2022-09-25T14:58:06;12.90;99.90
20728;DHT22;10525;50.154;8.198;2022-09-25T15:00:35;12.80;99.90
20728;DHT22;10525;50.154;8.198;2022-09-25T15:03:10;12.80;99.90
20728;DHT22;10525;50.154;8.198;2022-09-25T15:05:38;12.80;99.90
20728;DHT22;10525;50.154;8.198;2022-09-25T15:08:19;12.70;99.90
20728;DHT22;10525;50.154;8.198;2022-09-25T15:10:59;12.70;99.90
20728;DHT22;10525;50.154;8.198;2022-09-25T15:13:25;12.60;99.90
20728;DHT22;10525;50.154;8.198;2022-09-25T15:15:58;12.60;99.90
20728;DHT22;10525;50.154;8.198;2022-09-25T15:18:44;12.60;99.90
20728;DHT22;10525;50.154;8.198;2022-09-25T15:21:16;12.60;99.90
20728;DHT22;10525;50.154;8.198;2022-09-25T15:23:46;12.50;99.90
20728;DHT22;10525;50.154;8.198;2022-09-25T15:26:15;12.60;99.90
20728;DHT22;10525;50.154;8.198;2022-09-25T15:28:43;12.50;99.90
20728;DHT22;10525;50.154;8.198;2022-09-25T15:31:10;12.50;99.90
20728;DHT22;10525;50.154;8.198;2022-09-25T15:33:39;12.60;99.90
20728;DHT22;10525;50.154;8.198;2022-09-25T15:36:14;12.50;99.90
20728;DHT22;10525;50.154;8.198;2022-09-25T15:38:41;12.60;99.90
20728;DHT22;10525;50.154;8.198;2022-09-25T15:41:12;12.60;99.90
20728;DHT22;10525;50.154;8.198;2022-09-25T15:43:40;12.50;99.90
20728;DHT22;10525;50.154;8.198;2022-09-25T15:46:33;12.50;99.90
20728;DHT22;10525;50.154;8.198;2022-09-25T15:49:01;12.50;99.90
20728;DHT22;10525;50.154;8.198;2022-09-25T15:51:31;12.50;99.90
20728;DHT22;10525;50.154;8.198;2022-09-25T15:54:00;12.50;99.90
20728;DHT22;10525;50.154;8.198;2022-09-25T15:56:29;12.50;99.90
20728;DHT22;10525;50.154;8.198;2022-09-25T15:59:01;12.50;99.90